createdAt,value
2017-09-18T00:00:00.516Z,5.67
2017-09-18T00:02:29.673Z,5.97
2017-09-18T00:04:59.041Z,4.40
2017-09-18T00:07:28.066Z,5.07
2017-09-18T00:09:58.070Z,5.40
2017-09-18T00:12:35.078Z,4.93
2017-09-18T00:15:04.679Z,5.67
2017-09-18T00:17:35.112Z,5.60
2017-09-18T00:20:04.636Z,4.77
2017-09-18T00:22:33.773Z,5.00
2017-09-18T00:25:02.867Z,3.90
2017-09-18T00:27:32.960Z,4.80
2017-09-18T00:30:02.122Z,4.57
2017-09-18T00:32:31.178Z,5.03
2017-09-18T00:35:01.115Z,4.97
2017-09-18T00:37:30.430Z,4.80
2017-09-18T00:39:59.776Z,4.80
2017-09-18T00:42:28.982Z,4.37
2017-09-18T00:44:58.047Z,4.80
2017-09-18T00:47:27.200Z,4.70
2017-09-18T00:49:57.537Z,5.50
2017-09-18T00:52:27.939Z,4.80
2017-09-18T00:54:57.628Z,4.40
2017-09-18T00:57:26.751Z,5.53
2017-09-18T00:59:56.062Z,4.50
2017-09-18T01:02:25.444Z,5.10
2017-09-18T01:04:54.622Z,5.00
2017-09-18T01:07:23.776Z,4.73
2017-09-18T01:09:53.457Z,4.87
2017-09-18T01:12:22.859Z,5.27
2017-09-18T01:14:52.953Z,4.50
2017-09-18T01:17:22.032Z,4.60
2017-09-18T01:19:51.532Z,5.20
2017-09-18T01:22:20.764Z,4.93
2017-09-18T01:24:50.245Z,5.23
2017-09-18T01:27:19.346Z,4.40
2017-09-18T01:29:48.599Z,4.30
2017-09-18T01:32:17.892Z,5.37
2017-09-18T01:34:47.248Z,4.87
2017-09-18T01:37:16.794Z,5.07
2017-09-18T01:39:46.029Z,4.40
2017-09-18T01:42:15.386Z,7.07
2017-09-18T01:44:45.462Z,7.37
2017-09-18T01:47:15.503Z,6.80
2017-09-18T01:49:45.156Z,5.33
2017-09-18T01:52:14.284Z,5.23
2017-09-18T01:54:43.972Z,5.33
2017-09-18T01:57:13.213Z,5.70
2017-09-18T01:59:42.667Z,5.70
2017-09-18T02:02:11.914Z,6.03
2017-09-18T02:04:41.170Z,5.63
2017-09-18T02:07:10.712Z,5.43
2017-09-18T02:09:40.186Z,5.80
2017-09-18T02:12:09.635Z,6.47
2017-09-18T02:14:38.424Z,5.30
2017-09-18T02:17:08.541Z,5.47
2017-09-18T02:19:38.002Z,5.67
2017-09-18T02:22:07.472Z,5.90
2017-09-18T02:24:39.333Z,5.90
2017-09-18T02:27:08.863Z,5.40
2017-09-18T02:29:38.182Z,6.10
2017-09-18T02:32:07.461Z,6.40
2017-09-18T02:34:36.841Z,6.47
2017-09-18T02:37:06.105Z,7.43
2017-09-18T02:39:35.370Z,7.10
2017-09-18T02:42:05.057Z,7.53
2017-09-18T02:44:34.235Z,8.67
2017-09-18T02:47:03.578Z,7.07
2017-09-18T02:49:33.006Z,6.63
2017-09-18T02:52:02.264Z,6.87
2017-09-18T02:54:31.488Z,7.30
2017-09-18T02:57:02.575Z,7.73
2017-09-18T02:59:32.854Z,7.60
2017-09-18T03:02:02.555Z,6.53
2017-09-18T03:04:32.036Z,7.80
2017-09-18T03:07:02.117Z,6.83
2017-09-18T03:09:31.706Z,6.90
2017-09-18T03:12:00.975Z,6.47
2017-09-18T03:14:30.374Z,6.87
2017-09-18T03:17:01.198Z,7.93
2017-09-18T03:19:31.411Z,5.60
2017-09-18T03:22:00.673Z,6.70
2017-09-18T03:24:30.954Z,6.53
2017-09-18T03:27:03.665Z,5.80
2017-09-18T03:29:32.925Z,7.00
2017-09-18T03:32:02.230Z,6.80
2017-09-18T03:34:32.404Z,7.10
2017-09-18T03:37:01.953Z,7.37
2017-09-18T03:39:31.131Z,6.00
2017-09-18T03:42:00.600Z,6.60
2017-09-18T03:44:30.409Z,6.20
2017-09-18T03:46:59.658Z,7.37
2017-09-18T03:49:29.263Z,7.00
2017-09-18T03:51:58.929Z,5.80
2017-09-18T03:54:28.739Z,5.57
2017-09-18T03:56:57.973Z,6.47
2017-09-18T03:59:28.979Z,6.73
2017-09-18T04:01:58.622Z,8.33
2017-09-18T04:04:27.912Z,8.47
2017-09-18T04:06:58.306Z,5.60
2017-09-18T04:09:27.707Z,6.70
2017-09-18T04:11:56.997Z,5.53
2017-09-18T04:14:26.546Z,7.83
2017-09-18T04:16:55.715Z,8.90
2017-09-18T04:19:25.023Z,9.83
2017-09-18T04:21:54.442Z,8.30
2017-09-18T04:24:23.849Z,8.13
2017-09-18T04:26:53.150Z,7.57
2017-09-18T04:29:22.584Z,7.90
2017-09-18T04:31:52.763Z,8.70
2017-09-18T04:34:23.151Z,7.37
2017-09-18T04:36:52.604Z,6.23
2017-09-18T04:39:22.000Z,5.90
2017-09-18T04:41:51.428Z,4.90
2017-09-18T04:44:20.701Z,4.30
2017-09-18T04:46:50.297Z,5.13
2017-09-18T04:49:19.744Z,5.20
2017-09-18T04:51:49.023Z,4.00
2017-09-18T04:54:18.380Z,4.30
2017-09-18T04:56:48.882Z,3.83
2017-09-18T04:59:18.457Z,3.40
2017-09-18T05:01:50.400Z,3.27
2017-09-18T05:04:19.796Z,3.40
2017-09-18T05:06:49.547Z,3.80
2017-09-18T05:09:18.827Z,2.63
2017-09-18T05:11:47.933Z,3.03
2017-09-18T05:14:17.943Z,3.40
2017-09-18T05:16:47.343Z,2.63
2017-09-18T05:19:16.486Z,4.80
2017-09-18T05:21:46.021Z,2.73
2017-09-18T05:24:15.535Z,3.00
2017-09-18T05:26:44.921Z,2.97
2017-09-18T05:29:14.169Z,3.63
2017-09-18T05:31:43.595Z,3.10
2017-09-18T05:34:13.327Z,3.77
2017-09-18T05:36:43.693Z,3.40
2017-09-18T05:39:12.473Z,3.37
2017-09-18T05:41:41.995Z,2.97
2017-09-18T05:44:12.927Z,4.70
2017-09-18T05:46:42.188Z,5.40
2017-09-18T05:49:11.422Z,3.50
2017-09-18T05:51:40.990Z,3.27
2017-09-18T05:54:10.206Z,3.47
2017-09-18T05:56:39.440Z,2.90
2017-09-18T05:59:09.007Z,3.40
2017-09-18T06:01:38.525Z,2.70
2017-09-18T06:04:09.184Z,2.77
2017-09-18T06:06:38.341Z,5.10
2017-09-18T06:09:08.493Z,3.10
2017-09-18T06:11:37.734Z,3.13
2017-09-18T06:14:07.825Z,2.87
2017-09-18T06:16:37.328Z,2.73
2017-09-18T06:19:06.606Z,2.90
2017-09-18T06:21:35.735Z,3.10
2017-09-18T06:24:05.824Z,3.30
2017-09-18T06:26:35.537Z,4.60
2017-09-18T06:29:04.921Z,4.00
2017-09-18T06:31:34.918Z,3.30
2017-09-18T06:34:04.256Z,3.77
2017-09-18T06:36:33.538Z,3.10
2017-09-18T06:39:02.634Z,3.90
2017-09-18T06:41:32.134Z,3.33
2017-09-18T06:44:02.254Z,3.10
2017-09-18T06:46:32.082Z,3.40
2017-09-18T06:49:02.097Z,3.80
2017-09-18T06:51:31.742Z,3.43
2017-09-18T06:54:01.161Z,3.70
2017-09-18T06:56:30.676Z,3.13
2017-09-18T06:59:00.975Z,3.43
2017-09-18T07:01:30.715Z,3.53
2017-09-18T07:04:01.174Z,3.43
2017-09-18T07:06:31.334Z,3.60
2017-09-18T07:09:00.576Z,2.97
2017-09-18T07:11:30.601Z,2.50
2017-09-18T07:14:00.659Z,2.70
2017-09-18T07:16:29.850Z,3.07
2017-09-18T07:18:59.248Z,3.17
2017-09-18T07:21:28.807Z,3.70
2017-09-18T07:23:58.310Z,3.20
2017-09-18T07:26:27.545Z,2.50
2017-09-18T07:28:56.764Z,3.40
2017-09-18T07:31:26.297Z,4.50
2017-09-18T07:33:55.575Z,3.10
2017-09-18T07:36:25.391Z,2.80
2017-09-18T07:38:54.472Z,2.63
2017-09-18T07:41:23.927Z,3.60
2017-09-18T07:43:54.057Z,2.90
2017-09-18T07:46:23.110Z,2.93
2017-09-18T07:48:52.998Z,3.80
2017-09-18T07:51:22.639Z,3.37
2017-09-18T07:53:52.257Z,3.30
2017-09-18T07:56:21.608Z,2.73
2017-09-18T07:58:51.129Z,2.73
2017-09-18T08:01:20.619Z,3.50
2017-09-18T08:03:49.702Z,3.40
2017-09-18T08:06:19.095Z,3.33
2017-09-18T08:08:49.083Z,3.40
2017-09-18T08:11:18.384Z,2.00
2017-09-18T08:13:47.443Z,2.50
2017-09-18T08:16:16.852Z,2.13
2017-09-18T08:18:46.180Z,1.90
2017-09-18T08:21:15.362Z,2.80
2017-09-18T08:23:44.453Z,3.60
2017-09-18T08:26:13.613Z,3.60
2017-09-18T08:28:43.059Z,3.70
2017-09-18T08:31:12.359Z,3.80
2017-09-18T08:33:41.540Z,3.40
2017-09-18T08:36:10.837Z,3.00
2017-09-18T08:38:40.367Z,4.63
2017-09-18T08:41:09.432Z,3.80
2017-09-18T08:43:38.742Z,5.00
2017-09-18T08:46:07.891Z,3.53
2017-09-18T08:48:37.130Z,3.60
2017-09-18T08:51:06.678Z,3.50
2017-09-18T08:53:35.826Z,3.10
2017-09-18T08:56:05.042Z,3.20
2017-09-18T08:58:34.368Z,3.57
2017-09-18T09:01:03.958Z,3.40
2017-09-18T09:03:33.348Z,4.07
2017-09-18T09:06:02.635Z,4.20
2017-09-18T09:08:31.642Z,3.07
2017-09-18T09:11:02.371Z,4.80
2017-09-18T09:13:31.890Z,4.90
2017-09-18T09:16:01.112Z,4.70
2017-09-18T09:18:31.468Z,5.00
2017-09-18T09:21:00.793Z,4.27
2017-09-18T09:23:30.000Z,4.80
2017-09-18T09:25:59.489Z,4.63
2017-09-18T09:28:28.917Z,3.83
2017-09-18T09:30:58.667Z,3.73
2017-09-18T09:33:28.006Z,3.40
2017-09-18T09:35:58.056Z,3.37
2017-09-18T09:38:27.272Z,4.40
2017-09-18T09:40:56.469Z,4.80
2017-09-18T09:43:25.670Z,4.50
2017-09-18T09:45:55.018Z,4.73
2017-09-18T09:48:24.509Z,4.13
2017-09-18T09:50:54.092Z,3.40
2017-09-18T09:53:23.278Z,3.73
2017-09-18T09:55:52.775Z,3.50
2017-09-18T09:58:22.193Z,4.43
2017-09-18T10:00:51.554Z,4.53
2017-09-18T10:03:20.674Z,4.60
2017-09-18T10:05:49.931Z,4.87
2017-09-18T10:08:19.217Z,5.30
2017-09-18T10:10:49.447Z,4.63
2017-09-18T10:13:20.030Z,3.17
2017-09-18T10:15:49.205Z,4.17
2017-09-18T10:18:18.570Z,3.77
2017-09-18T10:20:48.241Z,3.93
2017-09-18T10:23:17.548Z,5.23
2017-09-18T10:25:46.984Z,5.30
2017-09-18T10:28:17.185Z,5.50
2017-09-18T10:30:46.653Z,5.53
2017-09-18T10:33:16.044Z,4.70
2017-09-18T10:35:45.399Z,4.13
2017-09-18T10:38:15.225Z,4.87
2017-09-18T10:40:45.366Z,4.80
2017-09-18T10:43:14.703Z,5.10
2017-09-18T10:45:44.127Z,4.90
2017-09-18T10:48:13.319Z,4.30
2017-09-18T10:50:42.529Z,5.17
2017-09-18T10:53:11.896Z,4.13
2017-09-18T10:55:41.297Z,3.77
2017-09-18T10:58:10.729Z,4.50
2017-09-18T11:00:39.961Z,4.03
2017-09-18T11:03:09.851Z,4.40
2017-09-18T11:05:39.247Z,6.10
2017-09-18T11:08:08.417Z,5.63
2017-09-18T11:10:37.716Z,5.80
2017-09-18T11:13:07.248Z,6.40
2017-09-18T11:15:36.652Z,5.73
2017-09-18T11:18:05.874Z,5.80
2017-09-18T11:20:35.063Z,5.83
2017-09-18T11:23:04.262Z,4.57
2017-09-18T11:25:33.559Z,5.57
2017-09-18T11:28:02.878Z,5.00
2017-09-18T11:30:32.100Z,5.03
2017-09-18T11:33:01.353Z,4.17
2017-09-18T11:35:30.422Z,4.27
2017-09-18T11:37:59.885Z,4.70
2017-09-18T11:40:29.802Z,4.93
2017-09-18T11:42:59.247Z,4.50
2017-09-18T11:45:28.780Z,5.27
2017-09-18T11:47:58.459Z,5.77
2017-09-18T11:50:27.843Z,4.90
2017-09-18T11:52:56.958Z,5.13
2017-09-18T11:55:26.298Z,6.30
2017-09-18T11:57:55.795Z,5.53
2017-09-18T12:00:24.965Z,7.20
2017-09-18T12:02:54.526Z,6.90
2017-09-18T12:05:24.494Z,5.80
2017-09-18T12:07:53.707Z,6.20
2017-09-18T12:10:22.902Z,5.80
2017-09-18T12:12:52.212Z,6.13
2017-09-18T12:15:21.501Z,6.23
2017-09-18T12:17:51.656Z,4.80
2017-09-18T12:20:21.856Z,4.50
2017-09-18T12:22:51.080Z,4.30
2017-09-18T12:25:21.508Z,5.80
2017-09-18T12:27:51.073Z,4.50
2017-09-18T12:30:20.260Z,6.23
2017-09-18T12:32:49.626Z,5.10
2017-09-18T12:35:18.795Z,4.60
2017-09-18T12:37:48.155Z,5.90
2017-09-18T12:40:17.347Z,6.87
2017-09-18T12:42:46.831Z,7.43
2017-09-18T12:45:15.966Z,5.73
2017-09-18T12:47:45.179Z,8.00
2017-09-18T12:50:14.492Z,4.27
2017-09-18T12:52:43.625Z,5.60
2017-09-18T12:55:12.916Z,6.80
2017-09-18T12:57:43.412Z,6.53
2017-09-18T13:00:12.919Z,6.50
2017-09-18T13:02:41.995Z,4.50
2017-09-18T13:05:11.247Z,6.17
2017-09-18T13:07:41.413Z,6.77
2017-09-18T13:10:10.631Z,7.40
2017-09-18T13:12:39.821Z,9.40
2017-09-18T13:15:09.317Z,6.50
2017-09-18T13:17:39.200Z,8.43
2017-09-18T13:20:09.350Z,7.83
2017-09-18T13:22:38.588Z,8.40
2017-09-18T13:25:07.852Z,6.77
2017-09-18T13:27:37.323Z,8.00
2017-09-18T13:30:06.517Z,7.20
2017-09-18T13:32:35.861Z,6.73
2017-09-18T13:35:05.520Z,8.20
2017-09-18T13:37:35.598Z,6.93
2017-09-18T13:40:04.905Z,5.83
2017-09-18T13:42:34.357Z,6.60
2017-09-18T13:45:03.921Z,7.27
2017-09-18T13:47:33.085Z,6.43
2017-09-18T13:50:02.466Z,5.93
2017-09-18T13:52:31.649Z,7.00
2017-09-18T13:55:01.922Z,5.20
2017-09-18T13:57:31.437Z,6.50
2017-09-18T14:00:00.511Z,6.93
2017-09-18T14:02:30.102Z,5.30
2017-09-18T14:04:59.675Z,4.37
2017-09-18T14:07:29.745Z,5.30
2017-09-18T14:09:58.949Z,5.57
2017-09-18T14:12:28.138Z,3.73
2017-09-18T14:14:57.322Z,4.70
2017-09-18T14:17:26.823Z,3.90
2017-09-18T14:19:57.317Z,4.60
2017-09-18T14:22:28.492Z,3.20
2017-09-18T14:24:58.129Z,3.73
2017-09-18T14:27:27.589Z,4.50
2017-09-18T14:29:56.716Z,4.80
2017-09-18T14:32:26.135Z,5.00
2017-09-18T14:34:55.721Z,4.57
2017-09-18T14:37:25.164Z,3.77
2017-09-18T14:39:54.644Z,4.30
2017-09-18T14:42:24.667Z,4.90
2017-09-18T14:44:54.717Z,4.40
2017-09-18T14:47:24.162Z,5.10
2017-09-18T14:49:53.338Z,6.03
2017-09-18T14:52:22.622Z,4.93
2017-09-18T14:54:52.228Z,4.53
2017-09-18T14:57:21.506Z,5.40
2017-09-18T14:59:50.852Z,4.80
2017-09-18T15:02:19.671Z,5.17
2017-09-18T15:04:49.141Z,3.90
2017-09-18T15:07:18.716Z,3.37
2017-09-18T15:09:48.475Z,4.60
2017-09-18T15:12:17.667Z,2.83
2017-09-18T15:14:47.080Z,3.03
2017-09-18T15:17:16.302Z,2.50
2017-09-18T15:19:45.864Z,3.20
2017-09-18T15:22:15.444Z,2.60
2017-09-18T15:24:45.629Z,3.53
2017-09-18T15:27:15.259Z,3.73
2017-09-18T15:29:44.858Z,4.10
2017-09-18T15:32:14.328Z,3.37
2017-09-18T15:34:43.672Z,4.83
2017-09-18T15:37:13.254Z,2.83
2017-09-18T15:39:42.954Z,2.80
2017-09-18T15:42:12.619Z,3.57
2017-09-18T15:44:42.048Z,3.53
2017-09-18T15:47:12.245Z,3.20
2017-09-18T15:49:41.833Z,3.20
2017-09-18T15:52:11.478Z,2.60
2017-09-18T15:54:40.709Z,2.43
2017-09-18T15:57:10.284Z,2.27
2017-09-18T15:59:39.914Z,2.20
2017-09-18T16:02:09.235Z,2.13
2017-09-18T16:04:38.809Z,1.60
2017-09-18T16:07:08.315Z,2.53
2017-09-18T16:09:37.920Z,2.03
2017-09-18T16:12:07.402Z,2.30
2017-09-18T16:14:36.882Z,2.20
2017-09-18T16:17:06.564Z,2.10
2017-09-18T16:19:36.074Z,1.80
2017-09-18T16:22:05.493Z,1.80
2017-09-18T16:24:35.188Z,1.97
2017-09-18T16:27:05.511Z,2.17
2017-09-18T16:29:35.205Z,1.90
2017-09-18T16:32:04.496Z,2.00
2017-09-18T16:34:34.016Z,1.70
2017-09-18T16:37:03.532Z,1.50
2017-09-18T16:39:32.920Z,1.13
2017-09-18T16:42:02.590Z,1.30
2017-09-18T16:44:32.005Z,1.30
2017-09-18T16:47:02.620Z,1.20
2017-09-18T16:49:31.818Z,1.00
2017-09-18T16:52:01.360Z,0.93
2017-09-18T16:54:30.787Z,1.33
2017-09-18T16:57:01.465Z,1.20
2017-09-18T16:59:31.938Z,1.40
2017-09-18T17:02:01.946Z,1.40
2017-09-18T17:04:32.070Z,1.40
2017-09-18T17:07:01.391Z,2.37
2017-09-18T17:09:31.337Z,1.40
2017-09-18T17:12:01.100Z,1.80
2017-09-18T17:14:30.916Z,1.70
2017-09-18T17:17:00.919Z,1.67
2017-09-18T17:19:30.425Z,1.30
2017-09-18T17:22:01.410Z,1.40
2017-09-18T17:24:31.787Z,1.47
2017-09-18T17:27:01.432Z,1.43
2017-09-18T17:29:33.065Z,1.60
2017-09-18T17:32:02.502Z,2.13
2017-09-18T17:34:32.029Z,1.80
2017-09-18T17:37:01.526Z,1.53
2017-09-18T17:39:30.968Z,1.50
2017-09-18T17:42:00.517Z,2.00
2017-09-18T17:44:29.977Z,1.70
2017-09-18T17:47:00.195Z,1.57
2017-09-18T17:49:30.570Z,2.33
2017-09-18T17:52:00.037Z,2.80
2017-09-18T17:54:30.148Z,1.90
2017-09-18T17:56:59.761Z,2.20
2017-09-18T17:59:29.229Z,2.43
2017-09-18T18:01:58.759Z,2.20
2017-09-18T18:04:28.381Z,2.20
2017-09-18T18:06:58.643Z,2.43
2017-09-18T18:09:27.808Z,2.30
2017-09-18T18:11:57.391Z,2.47
2017-09-18T18:14:26.868Z,2.20
2017-09-18T18:16:56.246Z,2.23
2017-09-18T18:19:25.572Z,2.90
2017-09-18T18:21:54.854Z,2.03
2017-09-18T18:24:24.433Z,1.90
2017-09-18T18:26:54.183Z,2.00
2017-09-18T18:29:23.690Z,2.27
2017-09-18T18:31:53.882Z,2.10
2017-09-18T18:34:23.138Z,2.17
2017-09-18T18:36:52.286Z,2.30
2017-09-18T18:39:21.761Z,2.30
2017-09-18T18:41:51.580Z,1.97
2017-09-18T18:44:21.198Z,2.20
2017-09-18T18:46:50.578Z,2.20
2017-09-18T18:49:19.869Z,2.60
2017-09-18T18:51:49.267Z,2.20
2017-09-18T18:54:18.872Z,2.20
2017-09-18T18:56:48.485Z,3.10
2017-09-18T18:59:17.815Z,2.70
2017-09-18T19:01:47.088Z,3.40
2017-09-18T19:04:16.628Z,3.37
2017-09-18T19:06:46.061Z,3.90
2017-09-18T19:09:15.683Z,3.10
2017-09-18T19:11:44.960Z,3.37
2017-09-18T19:14:14.360Z,3.97
2017-09-18T19:16:50.253Z,3.47
2017-09-18T19:19:19.489Z,3.27
2017-09-18T19:21:49.759Z,3.23
2017-09-18T19:24:19.318Z,2.93
2017-09-18T19:26:48.689Z,4.30
2017-09-18T19:29:18.390Z,3.43
2017-09-18T19:31:47.671Z,3.67
2017-09-18T19:34:17.587Z,3.20
2017-09-18T19:36:47.053Z,3.13
2017-09-18T19:39:16.582Z,3.77
2017-09-18T19:41:45.603Z,3.30
2017-09-18T19:44:15.021Z,3.50
2017-09-18T19:46:44.639Z,5.40
2017-09-18T19:49:14.175Z,3.90
2017-09-18T19:51:43.809Z,3.37
2017-09-18T19:54:13.596Z,3.80
2017-09-18T19:56:43.046Z,3.17
2017-09-18T19:59:12.279Z,3.70
2017-09-18T20:01:41.672Z,2.60
2017-09-18T20:04:11.034Z,2.60
2017-09-18T20:06:40.682Z,3.10
2017-09-18T20:09:10.540Z,3.43
2017-09-18T20:11:40.064Z,2.80
2017-09-18T20:14:09.560Z,3.20
2017-09-18T20:16:38.746Z,2.57
2017-09-18T20:19:08.032Z,2.77
2017-09-18T20:21:44.695Z,3.13
2017-09-18T20:24:14.222Z,3.00
2017-09-18T20:26:43.864Z,3.43
2017-09-18T20:29:13.529Z,3.03
2017-09-18T20:31:42.905Z,2.80
2017-09-18T20:34:12.401Z,3.07
2017-09-18T20:36:44.881Z,2.50
2017-09-18T20:39:14.427Z,1.90
2017-09-18T20:41:43.755Z,1.60
2017-09-18T20:44:13.267Z,1.03
2017-09-18T20:46:43.172Z,1.00
2017-09-18T20:49:12.807Z,1.10
2017-09-18T20:51:42.286Z,1.17
2017-09-18T20:54:11.692Z,0.97
2017-09-18T20:56:41.211Z,0.80
2017-09-18T20:59:10.780Z,0.80
2017-09-18T21:01:47.009Z,0.60
2017-09-18T21:04:16.258Z,0.80
2017-09-18T21:06:45.676Z,0.87
2017-09-18T21:09:15.178Z,0.80
2017-09-18T21:11:44.537Z,1.00
2017-09-18T21:14:13.915Z,1.07
2017-09-18T21:16:44.004Z,1.30
2017-09-18T21:19:13.571Z,1.13
2017-09-18T21:21:43.268Z,2.07
2017-09-18T21:24:12.354Z,1.30
2017-09-18T21:26:41.748Z,1.10
2017-09-18T21:29:11.391Z,1.37
2017-09-18T21:31:40.975Z,1.60
2017-09-18T21:34:11.442Z,1.60
2017-09-18T21:36:40.905Z,1.67
2017-09-18T21:39:11.626Z,1.20
2017-09-18T21:41:41.395Z,1.50
2017-09-18T21:44:10.724Z,1.13
2017-09-18T21:46:40.680Z,1.23
2017-09-18T21:49:11.115Z,1.50
2017-09-18T21:51:40.416Z,1.40
2017-09-18T21:54:09.740Z,1.67
2017-09-18T21:56:39.438Z,1.70
2017-09-18T21:59:08.502Z,2.00
2017-09-18T22:01:37.707Z,1.60
2017-09-18T22:04:09.665Z,1.90
2017-09-18T22:06:38.712Z,1.90
2017-09-18T22:09:08.201Z,2.03
2017-09-18T22:11:37.589Z,1.90
2017-09-18T22:14:06.766Z,2.53
2017-09-18T22:16:36.690Z,2.07
2017-09-18T22:19:07.116Z,1.80
2017-09-18T22:21:37.511Z,2.60
2017-09-18T22:24:07.109Z,2.20
2017-09-18T22:26:36.621Z,1.87
2017-09-18T22:29:06.121Z,2.27
2017-09-18T22:31:35.458Z,2.10
2017-09-18T22:34:05.541Z,1.87
2017-09-18T22:36:34.921Z,2.13
2017-09-18T22:39:04.657Z,1.30
2017-09-18T22:41:34.991Z,2.10
2017-09-18T22:44:04.363Z,1.70
2017-09-18T22:46:33.971Z,1.63
2017-09-18T22:49:03.585Z,1.17
2017-09-18T22:51:32.947Z,1.20
2017-09-18T22:54:02.182Z,1.13
2017-09-18T22:56:31.704Z,1.10
2017-09-18T22:59:01.540Z,0.70
2017-09-18T23:01:31.317Z,1.03
2017-09-18T23:04:00.808Z,0.90
2017-09-18T23:06:32.016Z,0.90
2017-09-18T23:09:02.474Z,1.00
2017-09-18T23:11:32.088Z,0.70
2017-09-18T23:14:01.411Z,0.70
2017-09-18T23:16:31.165Z,0.77
2017-09-18T23:19:01.741Z,1.00
2017-09-18T23:21:30.828Z,0.60
2017-09-18T23:24:00.483Z,0.70
2017-09-18T23:26:29.944Z,0.70
2017-09-18T23:28:59.149Z,1.10
2017-09-18T23:31:28.802Z,0.93
2017-09-18T23:33:59.186Z,0.90
2017-09-18T23:36:28.583Z,0.70
2017-09-18T23:38:58.004Z,0.80
2017-09-18T23:41:27.306Z,1.27
2017-09-18T23:43:57.507Z,1.17
2017-09-18T23:46:26.839Z,0.90
2017-09-18T23:48:57.162Z,1.20
2017-09-18T23:51:26.749Z,1.13
2017-09-18T23:53:56.372Z,1.03
2017-09-18T23:56:25.815Z,1.30
2017-09-18T23:58:55.893Z,0.90
